createdAt,value
2023-07-02T00:00:47.264Z,17.50
2023-07-02T00:03:14.616Z,17.33
2023-07-02T00:05:41.812Z,17.44
2023-07-02T00:08:08.986Z,17.32
2023-07-02T00:10:36.174Z,17.29
2023-07-02T00:13:03.280Z,17.28
2023-07-02T00:15:30.421Z,17.18
2023-07-02T00:17:58.494Z,17.15
2023-07-02T00:20:26.021Z,17.16
2023-07-02T00:22:55.771Z,17.18
2023-07-02T00:25:23.248Z,17.17
2023-07-02T00:27:50.332Z,17.21
2023-07-02T00:30:17.583Z,17.08
2023-07-02T00:32:44.718Z,17.19
2023-07-02T00:35:12.729Z,17.08
2023-07-02T00:37:39.881Z,17.17
2023-07-02T00:40:07.428Z,17.12
2023-07-02T00:42:34.515Z,17.20
2023-07-02T00:45:04.276Z,17.07
2023-07-02T00:47:36.430Z,16.77
2023-07-02T00:50:03.846Z,16.86
2023-07-02T00:52:31.437Z,16.78
2023-07-02T00:54:58.623Z,16.85
2023-07-02T00:57:30.688Z,16.85
2023-07-02T01:00:01.483Z,16.89
2023-07-02T01:02:30.976Z,16.70
2023-07-02T01:05:00.783Z,16.70
2023-07-02T01:07:28.526Z,16.75
2023-07-02T01:09:55.859Z,16.86
2023-07-02T01:12:23.501Z,16.81
2023-07-02T01:14:55.269Z,16.76
2023-07-02T01:17:23.482Z,16.89
2023-07-02T01:19:54.847Z,16.65
2023-07-02T01:22:23.586Z,16.88
2023-07-02T01:24:51.645Z,16.87
2023-07-02T01:27:19.769Z,16.57
2023-07-02T01:29:48.553Z,16.62
2023-07-02T01:32:15.729Z,16.68
2023-07-02T01:34:45.027Z,16.56
2023-07-02T01:37:12.216Z,16.63
2023-07-02T01:39:39.403Z,16.60
2023-07-02T01:42:15.732Z,16.52
2023-07-02T01:44:43.384Z,16.57
2023-07-02T01:47:10.553Z,16.50
2023-07-02T01:49:38.810Z,16.63
2023-07-02T01:52:06.648Z,16.62
2023-07-02T01:54:34.653Z,16.52
2023-07-02T01:57:01.897Z,16.48
2023-07-02T01:59:29.648Z,16.40
2023-07-02T02:01:56.783Z,16.46
2023-07-02T02:04:23.934Z,16.46
2023-07-02T02:06:51.153Z,16.47
2023-07-02T02:09:18.281Z,16.34
2023-07-02T02:11:46.924Z,16.30
2023-07-02T02:14:14.110Z,16.32
2023-07-02T02:16:41.262Z,16.21
2023-07-02T02:19:08.465Z,16.11
2023-07-02T02:21:35.565Z,16.29
2023-07-02T02:24:02.689Z,16.14
2023-07-02T02:26:29.828Z,16.28
2023-07-02T02:28:57.643Z,16.08
2023-07-02T02:31:24.880Z,15.96
2023-07-02T02:33:52.029Z,16.11
2023-07-02T02:36:19.216Z,16.15
2023-07-02T02:38:46.370Z,15.95
2023-07-02T02:41:14.402Z,16.10
2023-07-02T02:43:47.127Z,16.01
2023-07-02T02:46:20.818Z,15.94
2023-07-02T02:48:47.909Z,15.90
2023-07-02T02:51:15.005Z,15.67
2023-07-02T02:53:42.123Z,15.62
2023-07-02T02:56:09.297Z,15.79
2023-07-02T02:58:38.456Z,15.79
2023-07-02T03:01:12.128Z,15.82
2023-07-02T03:03:40.606Z,16.04
2023-07-02T03:06:07.770Z,15.93
2023-07-02T03:08:35.006Z,15.79
2023-07-02T03:11:02.149Z,15.60
2023-07-02T03:13:29.230Z,15.64
2023-07-02T03:15:56.333Z,15.74
2023-07-02T03:18:23.486Z,15.50
2023-07-02T03:20:50.679Z,15.49
2023-07-02T03:23:17.983Z,15.51
2023-07-02T03:25:45.097Z,15.45
2023-07-02T03:28:12.169Z,15.26
2023-07-02T03:30:39.382Z,15.13
2023-07-02T03:33:06.608Z,15.33
2023-07-02T03:35:33.742Z,15.45
2023-07-02T03:38:00.873Z,15.26
2023-07-02T03:40:28.057Z,15.26
2023-07-02T03:42:55.120Z,15.36
2023-07-02T03:45:22.186Z,15.41
2023-07-02T03:47:49.369Z,15.38
2023-07-02T03:50:16.555Z,15.62
2023-07-02T03:52:43.701Z,15.47
2023-07-02T03:55:10.781Z,15.57
2023-07-02T03:57:37.917Z,15.60
2023-07-02T04:00:06.382Z,15.75
2023-07-02T04:02:42.140Z,15.88
2023-07-02T04:05:09.625Z,15.95
2023-07-02T04:07:36.886Z,16.14
2023-07-02T04:10:04.094Z,16.30
2023-07-02T04:12:32.096Z,16.32
2023-07-02T04:14:59.775Z,16.56
2023-07-02T04:17:26.927Z,16.63
2023-07-02T04:19:55.342Z,16.86
2023-07-02T04:22:22.461Z,16.96
2023-07-02T04:24:49.948Z,17.00
2023-07-02T04:27:46.078Z,16.85
2023-07-02T04:30:06.977Z,16.75
2023-07-02T04:32:34.132Z,16.44
2023-07-02T04:35:01.893Z,16.29
2023-07-02T04:37:29.707Z,16.31
2023-07-02T04:39:56.988Z,16.34
2023-07-02T04:42:28.587Z,16.52
2023-07-02T04:44:56.219Z,16.80
2023-07-02T04:47:23.528Z,16.99
2023-07-02T04:49:50.725Z,17.35
2023-07-02T04:52:17.852Z,17.63
2023-07-02T04:54:45.001Z,17.88
2023-07-02T04:57:12.115Z,17.85
2023-07-02T04:59:39.192Z,17.64
2023-07-02T05:02:06.328Z,17.29
2023-07-02T05:04:33.479Z,17.22
2023-07-02T05:07:00.995Z,17.22
2023-07-02T05:09:28.067Z,17.18
2023-07-02T05:11:55.226Z,17.13
2023-07-02T05:14:25.104Z,16.92
2023-07-02T05:16:52.270Z,16.80
2023-07-02T05:19:19.415Z,16.85
2023-07-02T05:21:46.568Z,16.79
2023-07-02T05:24:13.650Z,16.63
2023-07-02T05:26:40.766Z,16.74
2023-07-02T05:29:07.844Z,16.65
2023-07-02T05:31:37.957Z,16.44
2023-07-02T05:34:05.133Z,16.46
2023-07-02T05:36:32.212Z,16.32
2023-07-02T05:38:59.293Z,16.46
2023-07-02T05:41:31.362Z,16.37
2023-07-02T05:44:01.626Z,16.47
2023-07-02T05:46:28.767Z,16.38
2023-07-02T05:48:59.117Z,16.36
2023-07-02T05:51:26.306Z,16.38
2023-07-02T05:53:53.672Z,16.32
2023-07-02T05:56:20.818Z,16.15
2023-07-02T05:58:48.986Z,16.20
2023-07-02T06:01:16.338Z,16.18
2023-07-02T06:03:44.908Z,16.15
2023-07-02T06:06:12.536Z,16.19
2023-07-02T06:08:39.688Z,16.12
2023-07-02T06:11:07.002Z,15.98
2023-07-02T06:13:34.107Z,16.11
2023-07-02T06:16:01.207Z,16.19
2023-07-02T06:18:28.411Z,16.08
2023-07-02T06:20:55.670Z,16.10
2023-07-02T06:23:22.779Z,16.22
2023-07-02T06:25:49.834Z,16.05
2023-07-02T06:28:16.975Z,16.08
2023-07-02T06:30:44.062Z,16.13
2023-07-02T06:33:11.249Z,16.21
2023-07-02T06:35:38.312Z,16.10
2023-07-02T06:38:05.443Z,16.14
2023-07-02T06:40:32.556Z,16.14
2023-07-02T06:42:59.624Z,16.27
2023-07-02T06:45:26.781Z,16.31
2023-07-02T06:47:53.923Z,16.24
2023-07-02T06:50:21.127Z,16.31
2023-07-02T06:52:48.310Z,16.34
2023-07-02T06:55:15.483Z,16.31
2023-07-02T06:57:43.895Z,16.35
2023-07-02T07:00:11.187Z,16.34
2023-07-02T07:02:38.397Z,16.47
2023-07-02T07:05:05.818Z,16.46
2023-07-02T07:07:33.349Z,16.49
2023-07-02T07:10:00.428Z,16.54
2023-07-02T07:12:27.496Z,16.60
2023-07-02T07:14:54.588Z,16.63
2023-07-02T07:17:21.931Z,16.76
2023-07-02T07:19:49.198Z,16.76
2023-07-02T07:22:16.360Z,16.86
2023-07-02T07:24:43.606Z,17.02
2023-07-02T07:27:11.166Z,17.07
2023-07-02T07:29:38.290Z,17.03
2023-07-02T07:32:05.666Z,17.10
2023-07-02T07:34:32.783Z,17.02
2023-07-02T07:36:59.902Z,17.09
2023-07-02T07:39:27.069Z,17.19
2023-07-02T07:41:54.423Z,17.30
2023-07-02T07:44:21.693Z,17.33
2023-07-02T07:46:48.806Z,17.46
2023-07-02T07:49:16.023Z,17.48
2023-07-02T07:51:43.121Z,17.39
2023-07-02T07:54:10.234Z,17.86
2023-07-02T07:56:37.303Z,18.12
2023-07-02T07:59:04.392Z,18.70
2023-07-02T08:01:31.562Z,18.81
2023-07-02T08:03:58.842Z,19.01
2023-07-02T08:06:26.005Z,19.22
2023-07-02T08:08:53.122Z,19.21
2023-07-02T08:11:20.276Z,19.36
2023-07-02T08:13:47.435Z,18.99
2023-07-02T08:16:14.679Z,18.92
2023-07-02T08:18:41.943Z,19.05
2023-07-02T08:21:09.145Z,19.12
2023-07-02T08:23:36.363Z,19.10
2023-07-02T08:26:04.200Z,19.50
2023-07-02T08:28:31.698Z,19.81
2023-07-02T08:30:58.842Z,19.61
2023-07-02T08:33:26.032Z,19.57
2023-07-02T08:35:53.089Z,19.70
2023-07-02T08:38:20.152Z,20.00
2023-07-02T08:40:47.536Z,20.12
2023-07-02T08:43:14.847Z,19.90
2023-07-02T08:45:42.836Z,19.87
2023-07-02T08:48:11.524Z,20.45
2023-07-02T08:50:38.755Z,20.72
2023-07-02T08:53:05.847Z,20.87
2023-07-02T08:55:32.970Z,21.29
2023-07-02T08:58:00.898Z,21.23
2023-07-02T09:00:28.019Z,21.28
2023-07-02T09:02:55.274Z,20.80
2023-07-02T09:05:22.478Z,21.40
2023-07-02T09:07:53.736Z,21.75
2023-07-02T09:10:32.018Z,22.01
2023-07-02T09:13:06.093Z,21.98
2023-07-02T09:15:37.235Z,22.24
2023-07-02T09:18:14.952Z,22.68
2023-07-02T09:20:42.032Z,21.84
2023-07-02T09:23:09.279Z,21.98
2023-07-02T09:25:38.209Z,22.14
2023-07-02T09:28:18.580Z,22.16
2023-07-02T09:30:53.253Z,21.93
2023-07-02T09:33:20.763Z,22.23
2023-07-02T09:35:48.290Z,22.52
2023-07-02T09:38:15.890Z,22.16
2023-07-02T09:40:48.208Z,22.59
2023-07-02T09:43:16.554Z,22.67
2023-07-02T09:45:47.965Z,22.53
2023-07-02T09:48:16.428Z,22.67
2023-07-02T09:50:44.828Z,22.95
2023-07-02T09:53:12.583Z,22.82
2023-07-02T09:55:40.310Z,23.02
2023-07-02T09:58:07.955Z,22.59
2023-07-02T10:00:35.412Z,22.67
2023-07-02T10:03:02.697Z,22.92
2023-07-02T10:05:30.641Z,22.79
2023-07-02T10:07:58.556Z,22.90
2023-07-02T10:10:28.450Z,23.23
2023-07-02T10:12:55.568Z,23.08
2023-07-02T10:15:27.036Z,22.97
2023-07-02T10:17:58.219Z,23.09
2023-07-02T10:20:37.438Z,23.12
2023-07-02T10:23:05.140Z,23.33
2023-07-02T10:25:33.454Z,23.01
2023-07-02T10:28:01.164Z,23.18
2023-07-02T10:30:35.105Z,23.33
2023-07-02T10:33:18.648Z,23.53
2023-07-02T10:35:50.570Z,23.62
2023-07-02T10:38:25.130Z,23.82
2023-07-02T10:40:59.270Z,23.65
2023-07-02T10:43:30.454Z,23.40
2023-07-02T10:46:01.033Z,23.66
2023-07-02T10:48:28.460Z,23.39
2023-07-02T10:50:55.568Z,23.64
2023-07-02T10:53:23.152Z,23.78
2023-07-02T10:55:57.939Z,24.03
2023-07-02T10:58:26.151Z,23.96
2023-07-02T11:00:53.656Z,24.12
2023-07-02T11:03:21.729Z,24.18
2023-07-02T11:05:50.317Z,24.39
2023-07-02T11:08:17.908Z,24.33
2023-07-02T11:10:45.057Z,24.52
2023-07-02T11:13:13.175Z,23.98
2023-07-02T11:15:42.681Z,23.97
2023-07-02T11:18:11.047Z,24.03
2023-07-02T11:20:39.037Z,24.17
2023-07-02T11:23:06.693Z,24.39
2023-07-02T11:25:33.952Z,24.34
2023-07-02T11:28:07.053Z,24.53
2023-07-02T11:30:34.504Z,24.66
2023-07-02T11:33:01.980Z,24.56
2023-07-02T11:35:36.662Z,24.78
2023-07-02T11:38:03.778Z,24.55
2023-07-02T11:40:31.020Z,24.60
2023-07-02T11:42:58.139Z,24.67
2023-07-02T11:45:25.225Z,24.73
2023-07-02T11:47:52.449Z,24.79
2023-07-02T11:50:26.852Z,24.68
2023-07-02T11:52:54.735Z,24.70
2023-07-02T11:55:22.104Z,24.72
2023-07-02T11:57:50.736Z,24.81
2023-07-02T12:00:18.148Z,24.73
2023-07-02T12:02:45.535Z,24.62
2023-07-02T12:05:13.487Z,24.90
2023-07-02T12:07:40.916Z,24.88
2023-07-02T12:10:08.843Z,24.67
2023-07-02T12:12:36.113Z,24.71
2023-07-02T12:15:03.498Z,24.58
2023-07-02T12:17:31.163Z,24.65
2023-07-02T12:19:59.121Z,24.53
2023-07-02T12:22:26.264Z,24.17
2023-07-02T12:24:56.892Z,24.44
2023-07-02T12:27:24.059Z,24.34
2023-07-02T12:29:51.155Z,24.40
2023-07-02T12:32:18.300Z,24.22
2023-07-02T12:34:45.457Z,24.41
2023-07-02T12:37:14.961Z,24.37
2023-07-02T12:39:42.089Z,24.39
2023-07-02T12:42:09.193Z,24.54
2023-07-02T12:44:36.297Z,24.86
2023-07-02T12:47:03.421Z,24.79
2023-07-02T12:49:30.536Z,24.49
2023-07-02T12:51:57.660Z,24.46
2023-07-02T12:54:24.742Z,24.34
2023-07-02T12:56:51.988Z,24.46
2023-07-02T12:59:19.189Z,24.45
2023-07-02T13:01:46.363Z,24.55
2023-07-02T13:04:15.856Z,24.79
2023-07-02T13:06:43.484Z,24.57
2023-07-02T13:09:10.599Z,24.68
2023-07-02T13:11:39.422Z,24.52
2023-07-02T13:14:06.583Z,24.31
2023-07-02T13:16:33.783Z,24.24
2023-07-02T13:19:02.871Z,24.23
2023-07-02T13:21:30.330Z,24.34
2023-07-02T13:23:57.470Z,24.28
2023-07-02T13:26:24.607Z,24.19
2023-07-02T13:28:51.804Z,24.15
2023-07-02T13:31:19.052Z,24.22
2023-07-02T13:33:47.510Z,24.26
2023-07-02T13:36:14.715Z,24.46
2023-07-02T13:38:41.790Z,24.55
2023-07-02T13:41:09.075Z,24.56
2023-07-02T13:43:36.195Z,24.44
2023-07-02T13:46:03.573Z,23.99
2023-07-02T13:48:30.678Z,23.94
2023-07-02T13:50:57.783Z,23.74
2023-07-02T13:53:24.883Z,23.89
2023-07-02T13:55:52.282Z,23.98
2023-07-02T13:58:29.548Z,23.95
2023-07-02T14:00:57.983Z,24.26
2023-07-02T14:03:25.310Z,24.26
2023-07-02T14:05:52.775Z,24.22
2023-07-02T14:08:20.191Z,23.96
2023-07-02T14:10:47.726Z,23.99
2023-07-02T14:13:15.027Z,23.97
2023-07-02T14:15:42.171Z,24.02
2023-07-02T14:18:09.305Z,24.11
2023-07-02T14:20:36.367Z,24.17
2023-07-02T14:23:03.618Z,24.27
2023-07-02T14:25:41.270Z,24.14
2023-07-02T14:28:09.593Z,24.13
2023-07-02T14:30:37.314Z,23.92
2023-07-02T14:33:05.072Z,23.88
2023-07-02T14:35:32.526Z,23.87
2023-07-02T14:37:59.752Z,24.11
2023-07-02T14:40:27.080Z,23.90
2023-07-02T14:42:54.325Z,24.05
2023-07-02T14:45:21.563Z,23.97
2023-07-02T14:47:48.716Z,23.79
2023-07-02T14:50:18.986Z,23.88
2023-07-02T14:52:46.704Z,23.67
2023-07-02T14:55:39.113Z,23.57
2023-07-02T14:58:06.196Z,23.49
2023-07-02T15:00:33.546Z,23.43
2023-07-02T15:03:00.834Z,23.47
2023-07-02T15:05:28.063Z,23.47
2023-07-02T15:07:55.223Z,23.60
2023-07-02T15:10:22.346Z,23.52
2023-07-02T15:12:49.446Z,23.48
2023-07-02T15:15:17.072Z,23.48
2023-07-02T15:17:44.366Z,23.57
2023-07-02T15:20:11.867Z,23.55
2023-07-02T15:22:39.324Z,23.55
2023-07-02T15:25:06.556Z,23.32
2023-07-02T15:27:33.638Z,23.10
2023-07-02T15:30:00.816Z,22.75
2023-07-02T15:32:28.058Z,22.83
2023-07-02T15:34:55.270Z,23.06
2023-07-02T15:37:22.371Z,23.20
2023-07-02T15:39:49.535Z,23.13
2023-07-02T15:42:16.668Z,22.78
2023-07-02T15:44:44.530Z,22.71
2023-07-02T15:47:11.695Z,22.77
2023-07-02T15:49:39.425Z,22.87
2023-07-02T15:52:07.280Z,22.68
2023-07-02T15:54:34.391Z,22.59
2023-07-02T15:57:01.465Z,22.60
2023-07-02T15:59:28.637Z,22.74
2023-07-02T16:01:55.858Z,22.87
2023-07-02T16:04:23.182Z,22.84
2023-07-02T16:06:50.430Z,22.55
2023-07-02T16:09:17.508Z,22.51
2023-07-02T16:11:44.830Z,22.58
2023-07-02T16:14:13.626Z,22.42
2023-07-02T16:16:41.926Z,22.47
2023-07-02T16:19:10.032Z,22.57
2023-07-02T16:21:38.282Z,22.61
2023-07-02T16:24:05.564Z,22.44
2023-07-02T16:26:32.773Z,22.38
2023-07-02T16:29:00.114Z,22.31
2023-07-02T16:31:27.242Z,22.26
2023-07-02T16:33:54.374Z,22.24
2023-07-02T16:36:21.463Z,22.22
2023-07-02T16:38:49.657Z,22.16
2023-07-02T16:41:16.810Z,22.03
2023-07-02T16:43:43.925Z,22.07
2023-07-02T16:46:11.059Z,22.11
2023-07-02T16:48:38.208Z,22.04
2023-07-02T16:51:06.832Z,21.89
2023-07-02T16:53:34.280Z,21.82
2023-07-02T16:56:02.261Z,21.77
2023-07-02T16:58:30.480Z,21.77
2023-07-02T17:01:02.208Z,21.67
2023-07-02T17:03:29.428Z,21.66
2023-07-02T17:05:59.400Z,21.68
2023-07-02T17:08:26.494Z,21.58
2023-07-02T17:10:53.636Z,21.49
2023-07-02T17:13:20.719Z,21.48
2023-07-02T17:15:47.922Z,21.47
2023-07-02T17:18:15.204Z,21.43
2023-07-02T17:20:42.391Z,21.42
2023-07-02T17:23:09.474Z,21.39
2023-07-02T17:25:36.550Z,21.31
2023-07-02T17:28:03.716Z,21.11
2023-07-02T17:30:30.788Z,21.09
2023-07-02T17:33:00.764Z,21.11
2023-07-02T17:35:27.857Z,21.06
2023-07-02T17:37:55.211Z,21.00
2023-07-02T17:40:22.268Z,20.92
2023-07-02T17:42:49.360Z,20.83
2023-07-02T17:45:19.197Z,20.80
2023-07-02T17:47:46.466Z,20.78
2023-07-02T17:50:13.816Z,20.75
2023-07-02T17:52:40.895Z,20.69
2023-07-02T17:55:08.503Z,20.69
2023-07-02T17:57:36.308Z,20.58
2023-07-02T18:00:03.769Z,20.46
2023-07-02T18:02:33.285Z,20.45
2023-07-02T18:05:00.755Z,20.43
2023-07-02T18:07:28.028Z,20.40
2023-07-02T18:09:55.318Z,20.34
2023-07-02T18:12:26.288Z,20.31
2023-07-02T18:14:55.595Z,20.26
2023-07-02T18:17:23.246Z,20.24
2023-07-02T18:19:50.381Z,20.19
2023-07-02T18:22:18.154Z,20.14
2023-07-02T18:24:45.230Z,20.09
2023-07-02T18:27:13.034Z,20.01
2023-07-02T18:29:40.255Z,20.03
2023-07-02T18:32:07.948Z,19.91
2023-07-02T18:34:36.045Z,19.82
2023-07-02T18:37:04.250Z,19.77
2023-07-02T18:39:35.560Z,19.76
2023-07-02T18:42:03.657Z,19.61
2023-07-02T18:44:35.269Z,19.76
2023-07-02T18:47:04.231Z,19.79
2023-07-02T18:49:35.613Z,19.81
2023-07-02T18:52:04.097Z,19.85
2023-07-02T18:54:31.290Z,19.67
2023-07-02T18:56:58.460Z,19.69
2023-07-02T18:59:25.580Z,19.71
2023-07-02T19:01:52.845Z,19.70
2023-07-02T19:04:20.125Z,19.62
2023-07-02T19:06:47.248Z,19.57
2023-07-02T19:09:14.361Z,19.47
2023-07-02T19:11:41.516Z,19.44
2023-07-02T19:14:08.594Z,19.41
2023-07-02T19:16:36.615Z,19.36
2023-07-02T19:19:04.068Z,19.25
2023-07-02T19:21:33.862Z,19.23
2023-07-02T19:24:01.121Z,19.12
2023-07-02T19:26:29.904Z,19.02
2023-07-02T19:28:57.533Z,19.03
2023-07-02T19:31:24.675Z,18.95
2023-07-02T19:33:51.911Z,18.96
2023-07-02T19:36:19.050Z,18.96
2023-07-02T19:38:46.211Z,18.80
2023-07-02T19:41:13.267Z,18.81
2023-07-02T19:43:40.372Z,18.68
2023-07-02T19:46:07.615Z,18.54
2023-07-02T19:48:34.795Z,18.21
2023-07-02T19:51:03.087Z,18.20
2023-07-02T19:53:30.638Z,18.22
2023-07-02T19:55:58.675Z,18.11
2023-07-02T19:58:26.198Z,18.22
2023-07-02T20:00:53.409Z,18.30
2023-07-02T20:03:20.943Z,18.33
2023-07-02T20:05:48.921Z,18.24
2023-07-02T20:08:16.347Z,18.20
2023-07-02T20:10:43.741Z,18.17
2023-07-02T20:13:10.831Z,18.14
2023-07-02T20:15:37.992Z,18.09
2023-07-02T20:18:05.101Z,17.99
2023-07-02T20:20:32.361Z,17.93
2023-07-02T20:22:59.527Z,17.87
2023-07-02T20:27:56.675Z,17.73
2023-07-02T20:30:23.792Z,17.68
2023-07-02T20:32:51.373Z,17.66
2023-07-02T20:35:20.385Z,17.64
2023-07-02T20:37:52.037Z,17.58
2023-07-02T20:40:19.557Z,17.58
2023-07-02T20:42:46.683Z,17.51
2023-07-02T20:45:14.347Z,17.52
2023-07-02T20:47:42.144Z,17.46
2023-07-02T20:50:14.102Z,17.42
2023-07-02T20:52:42.153Z,17.39
2023-07-02T20:55:09.615Z,17.34
2023-07-02T20:57:36.785Z,17.32
2023-07-02T21:00:09.566Z,17.30
2023-07-02T21:02:36.849Z,17.21
2023-07-02T21:05:04.143Z,17.16
2023-07-02T21:07:31.292Z,17.10
2023-07-02T21:09:58.634Z,17.06
2023-07-02T21:12:26.468Z,16.99
2023-07-02T21:14:54.468Z,16.94
2023-07-02T21:17:21.774Z,16.98
2023-07-02T21:19:48.838Z,17.03
2023-07-02T21:22:15.929Z,17.02
2023-07-02T21:24:43.002Z,17.02
2023-07-02T21:27:10.085Z,16.99
2023-07-02T21:29:37.186Z,16.97
2023-07-02T21:32:04.579Z,16.96
2023-07-02T21:34:32.388Z,16.94
2023-07-02T21:36:59.476Z,16.85
2023-07-02T21:39:26.540Z,16.77
2023-07-02T21:41:53.720Z,16.75
2023-07-02T21:44:20.804Z,16.71
2023-07-02T21:46:48.054Z,16.61
2023-07-02T21:49:15.270Z,16.58
2023-07-02T21:51:42.328Z,16.55
2023-07-02T21:54:09.398Z,16.55
2023-07-02T21:56:36.423Z,16.54
2023-07-02T21:59:03.916Z,16.51
2023-07-02T22:01:31.060Z,16.51
2023-07-02T22:03:59.805Z,16.51
2023-07-02T22:06:26.858Z,16.54
2023-07-02T22:08:53.957Z,16.51
2023-07-02T22:11:24.171Z,16.43
2023-07-02T22:13:52.229Z,16.42
2023-07-02T22:16:19.307Z,16.42
2023-07-02T22:18:46.483Z,16.41
2023-07-02T22:21:14.823Z,16.35
2023-07-02T22:23:43.852Z,16.19
2023-07-02T22:26:11.095Z,16.18
2023-07-02T22:28:38.172Z,16.22
2023-07-02T22:31:06.675Z,16.19
2023-07-02T22:33:33.901Z,16.20
2023-07-02T22:36:00.974Z,16.16
2023-07-02T22:38:28.076Z,16.12
2023-07-02T22:40:55.236Z,15.94
2023-07-02T22:43:22.301Z,16.06
2023-07-02T22:45:49.738Z,16.05
2023-07-02T22:48:17.649Z,15.80
2023-07-02T22:50:45.506Z,15.91
2023-07-02T22:53:12.710Z,16.05
2023-07-02T22:55:39.778Z,15.63
2023-07-02T22:58:06.867Z,15.70
2023-07-02T23:00:33.974Z,15.48
2023-07-02T23:03:01.155Z,15.60
2023-07-02T23:05:28.529Z,15.81
2023-07-02T23:07:55.708Z,15.57
2023-07-02T23:10:22.902Z,15.52
2023-07-02T23:12:51.366Z,15.30
2023-07-02T23:15:19.549Z,15.54
2023-07-02T23:17:51.491Z,15.62
2023-07-02T23:20:19.874Z,15.50
2023-07-02T23:22:48.624Z,15.32
2023-07-02T23:25:18.952Z,15.14
2023-07-02T23:27:47.974Z,15.03
2023-07-02T23:30:18.215Z,15.36
2023-07-02T23:32:46.287Z,15.53
2023-07-02T23:35:14.269Z,15.26
2023-07-02T23:37:46.661Z,15.14
2023-07-02T23:40:16.869Z,15.06
2023-07-02T23:42:44.737Z,15.16
2023-07-02T23:45:12.994Z,15.32
2023-07-02T23:47:40.196Z,15.51
2023-07-02T23:50:08.665Z,15.25
2023-07-02T23:52:38.652Z,15.13
2023-07-02T23:55:06.781Z,15.06
2023-07-02T23:57:34.707Z,15.18
